| time (UTC) | temp F | wind direction | speed MPH | gust MPH | rain 1hr in | rain 24hr in | rain mn in | humidity % | barometer mb |
| 20260508225322 | 62 | 81 | 0.0 | 0.0 | 0.00 | 0.00 | 0.00 | 59 | 1014.8 |
| 20260508224820 | 62 | 118 | 1.0 | 1.0 | 0.00 | 0.00 | 0.00 | 57 | 1014.9 |
| 20260508224318 | 62 | 106 | 0.0 | 0.0 | 0.00 | 0.00 | 0.00 | 59 | 1014.8 |
| 20260508223815 | 62 | 106 | 0.0 | 0.0 | 0.00 | 0.00 | 0.00 | 60 | 1014.9 |
| 20260508223312 | 62 | 98 | 1.0 | 1.0 | 0.00 | 0.00 | 0.00 | 60 | 1014.8 |
| 20260508222810 | 63 | 123 | 1.0 | 1.0 | 0.00 | 0.00 | 0.00 | 59 | 1015.0 |
| 20260508222307 | 63 | 77 | 1.0 | 1.0 | 0.00 | 0.00 | 0.00 | 58 | 1015.0 |
| 20260508221803 | 63 | 99 | 1.0 | 1.0 | 0.00 | 0.00 | 0.00 | 59 | 1014.8 |
| 20260508221259 | 63 | 97 | 0.0 | 0.0 | 0.00 | 0.00 | 0.00 | 58 | 1014.9 |
| 20260508220755 | 63 | 173 | 2.0 | 2.0 | 0.00 | 0.00 | 0.00 | 58 | 1014.9 |
| 20260508220252 | 63 | 106 | 1.0 | 1.0 | 0.00 | 0.00 | 0.00 | 56 | 1014.8 |
| 20260508215748 | 64 | 150 | 1.0 | 1.0 | 0.00 | 0.00 | 0.00 | 56 | 1014.8 |
| 20260508215245 | 64 | 131 | 1.0 | 1.0 | 0.00 | 0.00 | 0.00 | 55 | 1014.9 |
| 20260508214742 | 64 | 112 | 1.0 | 1.0 | 0.00 | 0.00 | 0.00 | 55 | 1014.8 |
| 20260508214239 | 64 | 105 | 2.0 | 2.0 | 0.00 | 0.00 | 0.00 | 54 | 1015.1 |
| 20260508213736 | 64 | 350 | 1.0 | 2.0 | 0.00 | 0.00 | 0.00 | 53 | 1015.0 |
| 20260508213233 | 64 | 101 | 0.0 | 0.0 | 0.00 | 0.00 | 0.00 | 55 | 1015.2 |
| 20260508212729 | 63 | 289 | 1.0 | 1.0 | 0.00 | 0.00 | 0.00 | 53 | 1015.0 |
| 20260508212225 | 63 | 151 | 1.0 | 1.0 | 0.00 | 0.00 | 0.00 | 54 | 1014.8 |
| 20260508211721 | 64 | 153 | 2.0 | 2.0 | 0.00 | 0.00 | 0.00 | 54 | 1014.6 |
| 20260508211217 | 64 | 130 | 0.0 | 0.0 | 0.00 | 0.00 | 0.00 | 55 | 1014.7 |
| 20260508210715 | 64 | 126 | 2.0 | 2.0 | 0.00 | 0.00 | 0.00 | 55 | 1014.6 |
| 20260508210212 | 64 | 142 | 2.0 | 2.0 | 0.00 | 0.00 | 0.00 | 53 | 1014.7 |
| 20260508205708 | 64 | 154 | 4.0 | 6.0 | 0.00 | 0.00 | 0.00 | 51 | 1014.7 |
| 20260508205205 | 65 | 96 | 0.0 | 0.0 | 0.00 | 0.00 | 0.00 | 54 | 1014.7 |
| 20260508204701 | 65 | 141 | 1.0 | 1.0 | 0.00 | 0.00 | 0.00 | 53 | 1014.9 |
| 20260508204157 | 65 | 163 | 2.0 | 2.0 | 0.00 | 0.00 | 0.00 | 51 | 1014.9 |
| 20260508203653 | 65 | 85 | 0.0 | 0.0 | 0.00 | 0.00 | 0.00 | 52 | 1014.8 |
| 20260508203150 | 65 | 333 | 1.0 | 1.0 | 0.00 | 0.00 | 0.00 | 51 | 1014.9 |
| 20260508202646 | 66 | 86 | 2.0 | 2.0 | 0.00 | 0.00 | 0.00 | 50 | 1015.0 |
| 20260508202144 | 66 | 109 | 1.0 | 1.0 | 0.00 | 0.00 | 0.00 | 54 | 1015.0 |
| 20260508201640 | 66 | 85 | 1.0 | 1.0 | 0.00 | 0.00 | 0.00 | 52 | 1014.9 |
| 20260508201137 | 65 | 80 | 0.0 | 0.0 | 0.00 | 0.00 | 0.00 | 52 | 1015.0 |
| 20260508200634 | 65 | 121 | 1.0 | 1.0 | 0.00 | 0.00 | 0.00 | 52 | 1014.9 |
| 20260508200130 | 64 | 192 | 1.0 | 1.0 | 0.00 | 0.00 | 0.00 | 51 | 1015.2 |
| 20260508195626 | 65 | 159 | 4.0 | 4.0 | 0.00 | 0.00 | 0.00 | 49 | 1015.5 |
| 20260508195123 | 65 | 309 | 2.0 | 2.0 | 0.00 | 0.00 | 0.00 | 48 | 1015.6 |
| 20260508194619 | 65 | 146 | 2.0 | 2.0 | 0.00 | 0.00 | 0.00 | 48 | 1015.5 |
| 20260508194117 | 66 | 139 | 2.0 | 3.0 | 0.00 | 0.00 | 0.00 | 48 | 1015.5 |
| 20260508193614 | 67 | 100 | 1.0 | 1.0 | 0.00 | 0.00 | 0.00 | 49 | 1015.7 |
| 20260508193110 | 66 | 33 | 1.0 | 1.0 | 0.00 | 0.00 | 0.00 | 48 | 1015.5 |
| 20260508192607 | 66 | 270 | 2.0 | 2.0 | 0.00 | 0.00 | 0.00 | 51 | 1016.0 |
| 20260508192104 | 66 | 165 | 0.0 | 0.0 | 0.00 | 0.00 | 0.00 | 49 | 1016.2 |
| 20260508191601 | 65 | 151 | 3.0 | 4.0 | 0.00 | 0.00 | 0.00 | 50 | 1016.1 |
| 20260508191057 | 65 | 101 | 3.0 | 3.0 | 0.00 | 0.00 | 0.00 | 47 | 1016.0 |
| 20260508190555 | 65 | 152 | 3.0 | 3.0 | 0.00 | 0.00 | 0.00 | 49 | 1016.1 |
| 20260508190051 | 65 | 119 | 1.0 | 1.0 | 0.00 | 0.00 | 0.00 | 47 | 1016.1 |
| 20260508185548 | 66 | 152 | 2.0 | 2.0 | 0.00 | 0.00 | 0.00 | 46 | 1016.3 |
| 20260508185046 | 65 | 154 | 1.0 | 1.0 | 0.00 | 0.00 | 0.00 | 46 | 1016.3 |
| 20260508184543 | 64 | 107 | 1.0 | 1.0 | 0.00 | 0.00 | 0.00 | 49 | 1016.4 |
| 20260508184039 | 63 | 228 | 1.0 | 1.0 | 0.00 | 0.00 | 0.00 | 50 | 1016.5 |
| 20260508183536 | 62 | 142 | 1.0 | 1.0 | 0.00 | 0.00 | 0.00 | 52 | 1016.5 |
| 20260508183032 | 62 | 147 | 0.0 | 1.0 | 0.00 | 0.00 | 0.00 | 53 | 1016.7 |
| 20260508182529 | 64 | 172 | 1.0 | 1.0 | 0.00 | 0.00 | 0.00 | 49 | 1016.7 |
| 20260508182025 | 64 | 148 | 3.0 | 3.0 | 0.00 | 0.00 | 0.00 | 49 | 1016.8 |
| 20260508181521 | 64 | 298 | 1.0 | 1.0 | 0.00 | 0.00 | 0.00 | 53 | 1016.8 |
| 20260508181019 | 64 | 177 | 4.0 | 4.0 | 0.00 | 0.00 | 0.00 | 49 | 1016.9 |
| 20260508180515 | 64 | 81 | 1.0 | 1.0 | 0.00 | 0.00 | 0.00 | 50 | 1016.8 |
| 20260508180011 | 65 | 275 | 2.0 | 3.0 | 0.00 | 0.00 | 0.00 | 47 | 1016.6 |
| 20260508175508 | 65 | 36 | 1.0 | 1.0 | 0.00 | 0.00 | 0.00 | 47 | 1016.9 |
| 20260508175005 | 64 | 79 | 0.0 | 0.0 | 0.00 | 0.00 | 0.00 | 50 | 1016.9 |
| 20260508174503 | 64 | 132 | 2.0 | 2.0 | 0.00 | 0.00 | 0.00 | 52 | 1017.2 |
| 20260508173959 | 64 | 118 | 2.0 | 3.0 | 0.00 | 0.00 | 0.00 | 50 | 1017.0 |
| 20260508173457 | 63 | 102 | 1.0 | 1.0 | 0.00 | 0.00 | 0.00 | 49 | 1017.0 |
| 20260508172952 | 62 | 166 | 3.0 | 3.0 | 0.00 | 0.00 | 0.00 | 54 | 1017.0 |
| 20260508172450 | 64 | 105 | 2.0 | 2.0 | 0.00 | 0.00 | 0.00 | 50 | 1017.2 |
| 20260508171946 | 64 | 65 | 1.0 | 1.0 | 0.00 | 0.00 | 0.00 | 49 | 1017.3 |
| 20260508171443 | 64 | 272 | 3.0 | 3.0 | 0.00 | 0.00 | 0.00 | 48 | 1017.2 |
| 20260508170939 | 64 | 96 | 2.0 | 2.0 | 0.00 | 0.00 | 0.00 | 52 | 1017.3 |
| 20260508170437 | 64 | 36 | 1.0 | 1.0 | 0.00 | 0.00 | 0.00 | 50 | 1017.4 |
| 20260508165933 | 64 | 219 | 1.0 | 2.0 | 0.00 | 0.00 | 0.00 | 51 | 1017.4 |
| 20260508165432 | 64 | 92 | 1.0 | 1.0 | 0.00 | 0.00 | 0.00 | 47 | 1017.7 |
| 20260508164927 | 62 | 334 | 1.0 | 1.0 | 0.00 | 0.00 | 0.00 | 52 | 1017.7 |
| 20260508164424 | 62 | 344 | 2.0 | 3.0 | 0.00 | 0.00 | 0.00 | 48 | 1017.8 |
| 20260508163921 | 62 | 357 | 2.0 | 2.0 | 0.00 | 0.00 | 0.00 | 47 | 1018.0 |
| 20260508163419 | 62 | 144 | 1.0 | 1.0 | 0.00 | 0.00 | 0.00 | 49 | 1018.1 |
| 20260508162914 | 62 | 140 | 2.0 | 2.0 | 0.00 | 0.00 | 0.00 | 46 | 1018.2 |
| 20260508162412 | 62 | 19 | 1.0 | 1.0 | 0.00 | 0.00 | 0.00 | 48 | 1018.3 |
| 20260508161909 | 61 | 324 | 2.0 | 2.0 | 0.00 | 0.00 | 0.00 | 46 | 1018.1 |
| 20260508161406 | 61 | 354 | 2.0 | 2.0 | 0.00 | 0.00 | 0.00 | 47 | 1018.2 |
| 20260508160903 | 60 | 135 | 1.0 | 1.0 | 0.00 | 0.00 | 0.00 | 47 | 1018.3 |
| 20260508160402 | 61 | 236 | 1.0 | 2.0 | 0.00 | 0.00 | 0.00 | 46 | 1018.4 |
| 20260508155858 | 60 | 83 | 1.0 | 1.0 | 0.00 | 0.00 | 0.00 | 50 | 1018.5 |
| 20260508155355 | 59 | 337 | 3.0 | 3.0 | 0.00 | 0.00 | 0.00 | 50 | 1018.6 |
| 20260508154852 | 60 | 5 | 1.0 | 1.0 | 0.00 | 0.00 | 0.00 | 49 | 1018.5 |
| 20260508154350 | 60 | 139 | 2.0 | 1.0 | 0.00 | 0.00 | 0.00 | 50 | 1018.6 |
| 20260508153846 | 59 | 75 | 1.0 | 1.0 | 0.00 | 0.00 | 0.00 | 51 | 1018.6 |
| 20260508153343 | 59 | 154 | 2.0 | 2.0 | 0.00 | 0.00 | 0.00 | 50 | 1018.7 |
| 20260508152839 | 58 | 264 | 2.0 | 2.0 | 0.00 | 0.00 | 0.00 | 50 | 1018.7 |
| 20260508152336 | 58 | 340 | 2.0 | 2.0 | 0.00 | 0.00 | 0.00 | 53 | 1018.8 |
| 20260508151832 | 58 | 310 | 1.0 | 1.0 | 0.00 | 0.00 | 0.00 | 52 | 1018.8 |
| 20260508151329 | 57 | 333 | 3.0 | 3.0 | 0.00 | 0.00 | 0.00 | 51 | 1018.7 |
| 20260508150825 | 57 | 45 | 2.0 | 2.0 | 0.00 | 0.00 | 0.00 | 49 | 1018.7 |
| 20260508150322 | 57 | 90 | 1.0 | 1.0 | 0.00 | 0.00 | 0.00 | 59 | 1018.7 |
| 20260508145819 | 57 | 107 | 2.0 | 2.0 | 0.00 | 0.00 | 0.00 | 55 | 1018.8 |
| 20260508145315 | 57 | 93 | 1.0 | 1.0 | 0.00 | 0.00 | 0.00 | 58 | 1018.8 |
| 20260508144812 | 56 | 45 | 0.0 | 0.0 | 0.00 | 0.00 | 0.00 | 59 | 1018.9 |
| 20260508144310 | 56 | 77 | 1.0 | 1.0 | 0.00 | 0.00 | 0.00 | 62 | 1018.8 |
| 20260508143807 | 56 | 99 | 1.0 | 1.0 | 0.00 | 0.00 | 0.00 | 62 | 1018.9 |
| 20260508143304 | 56 | 22 | 0.0 | 0.0 | 0.00 | 0.00 | 0.00 | 63 | 1018.8 |
| 20260508142800 | 55 | 28 | 0.0 | 0.0 | 0.00 | 0.00 | 0.00 | 58 | 1018.9 |
| 20260508142257 | 55 | 18 | 1.0 | 1.0 | 0.00 | 0.00 | 0.00 | 60 | 1019.1 |
| 20260508141754 | 55 | 93 | 1.0 | 1.0 | 0.00 | 0.00 | 0.00 | 66 | 1019.3 |
| 20260508141251 | 55 | 86 | 2.0 | 2.0 | 0.00 | 0.00 | 0.00 | 65 | 1018.9 |
| 20260508140748 | 55 | 58 | 1.0 | 1.0 | 0.00 | 0.00 | 0.00 | 66 | 1019.1 |
| 20260508140245 | 54 | 344 | 1.0 | 1.0 | 0.00 | 0.00 | 0.00 | 69 | 1019.0 |
| 20260508135741 | 54 | 343 | 0.0 | 0.0 | 0.00 | 0.00 | 0.00 | 71 | 1018.9 |
| 20260508135237 | 53 | 357 | 2.0 | 2.0 | 0.00 | 0.00 | 0.00 | 72 | 1019.0 |
| 20260508134733 | 53 | 358 | 0.0 | 0.0 | 0.00 | 0.00 | 0.00 | 75 | 1019.0 |
| 20260508134231 | 52 | 357 | 0.0 | 0.0 | 0.00 | 0.00 | 0.00 | 74 | 1019.3 |
| 20260508133727 | 52 | 55 | 0.0 | 0.0 | 0.00 | 0.00 | 0.00 | 75 | 1019.1 |
| 20260508133225 | 52 | 54 | 1.0 | 1.0 | 0.00 | 0.00 | 0.00 | 77 | 1019.3 |
| 20260508132722 | 52 | 58 | 0.0 | 0.0 | 0.00 | 0.00 | 0.00 | 74 | 1019.4 |
| 20260508132220 | 52 | 340 | 1.0 | 1.0 | 0.00 | 0.00 | 0.00 | 74 | 1019.3 |
| 20260508131715 | 51 | 341 | 0.0 | 0.0 | 0.00 | 0.00 | 0.00 | 77 | 1019.3 |
| 20260508131212 | 51 | 341 | 0.0 | 0.0 | 0.00 | 0.00 | 0.00 | 77 | 1019.0 |
| 20260508130708 | 51 | 341 | 1.0 | 1.0 | 0.00 | 0.00 | 0.00 | 79 | 1019.0 |
| 20260508130206 | 50 | 341 | 0.0 | 0.0 | 0.00 | 0.00 | 0.00 | 78 | 1019.0 |
| 20260508125701 | 50 | 341 | 0.0 | 0.0 | 0.00 | 0.00 | 0.00 | 81 | 1018.9 |
| 20260508125157 | 50 | 341 | 1.0 | 0.0 | 0.00 | 0.00 | 0.00 | 79 | 1019.0 |
| 20260508124656 | 50 | 340 | 0.0 | 0.0 | 0.00 | 0.00 | 0.00 | 81 | 1018.9 |
| 20260508124153 | 49 | 340 | 0.0 | 0.0 | 0.00 | 0.00 | 0.00 | 83 | 1018.9 |
| 20260508123651 | 49 | 340 | 0.0 | 0.0 | 0.00 | 0.00 | 0.00 | 86 | 1018.8 |
| 20260508123149 | 49 | 340 | 0.0 | 0.0 | 0.00 | 0.00 | 0.00 | 88 | 1019.1 |
| 20260508122644 | 48 | 340 | 0.0 | 0.0 | 0.00 | 0.00 | 0.00 | 89 | 1018.8 |
| 20260508122141 | 48 | 340 | 0.0 | 0.0 | 0.00 | 0.00 | 0.00 | 92 | 1018.9 |
| 20260508121639 | 47 | 340 | 0.0 | 0.0 | 0.00 | 0.00 | 0.00 | 94 | 1018.9 |
| 20260508121137 | 46 | 340 | 0.0 | 0.0 | 0.00 | 0.00 | 0.00 | 96 | 1018.7 |
| 20260508120634 | 46 | 340 | 0.0 | 0.0 | 0.00 | 0.00 | 0.00 | 97 | 1018.6 |
| 20260508120133 | 45 | 340 | 0.0 | 0.0 | 0.00 | 0.00 | 0.00 | 98 | 1018.7 |
| 20260508115630 | 45 | 340 | 0.0 | 0.0 | 0.00 | 0.00 | 0.00 | 98 | 1018.6 |
| 20260508115126 | 44 | 340 | 0.0 | 0.0 | 0.00 | 0.00 | 0.00 | 98 | 1018.6 |
| 20260508114624 | 43 | 340 | 0.0 | 0.0 | 0.00 | 0.00 | 0.00 | 98 | 1018.4 |
| 20260508114119 | 43 | 340 | 0.0 | 0.0 | 0.00 | 0.00 | 0.00 | 98 | 1018.6 |
| 20260508113617 | 43 | 340 | 0.0 | 0.0 | 0.00 | 0.00 | 0.00 | 97 | 1018.2 |
| 20260508113115 | 43 | 340 | 0.0 | 0.0 | 0.00 | 0.00 | 0.00 | 97 | 1018.3 |
| 20260508112611 | 43 | 339 | 0.0 | 0.0 | 0.00 | 0.00 | 0.00 | 97 | 1018.2 |
| 20260508112108 | 43 | 339 | 0.0 | 0.0 | 0.00 | 0.00 | 0.00 | 97 | 1018.1 |
| 20260508111605 | 43 | 339 | 0.0 | 0.0 | 0.00 | 0.00 | 0.00 | 97 | 1018.0 |
| 20260508111102 | 42 | 338 | 0.0 | 0.0 | 0.00 | 0.00 | 0.00 | 97 | 1018.0 |
| 20260508110600 | 42 | 338 | 0.0 | 0.0 | 0.00 | 0.00 | 0.00 | 97 | 1017.9 |
| 20260508110056 | 43 | 338 | 0.0 | 0.0 | 0.00 | 0.00 | 0.00 | 97 | 1017.9 |
| 20260508105551 | 42 | 338 | 0.0 | 0.0 | 0.00 | 0.00 | 0.00 | 97 | 1017.8 |
| 20260508105048 | 43 | 338 | 0.0 | 0.0 | 0.00 | 0.00 | 0.00 | 97 | 1017.6 |
| 20260508104546 | 43 | 338 | 0.0 | 0.0 | 0.00 | 0.00 | 0.00 | 97 | 1017.7 |
| 20260508104042 | 43 | 338 | 0.0 | 0.0 | 0.00 | 0.00 | 0.00 | 97 | 1017.4 |
| 20260508103539 | 43 | 338 | 0.0 | 0.0 | 0.00 | 0.00 | 0.00 | 97 | 1017.6 |
| 20260508103037 | 43 | 338 | 0.0 | 0.0 | 0.00 | 0.00 | 0.00 | 96 | 1017.4 |
| 20260508102534 | 43 | 338 | 0.0 | 0.0 | 0.00 | 0.00 | 0.00 | 96 | 1017.2 |
| 20260508102032 | 43 | 338 | 0.0 | 0.0 | 0.00 | 0.00 | 0.00 | 96 | 1017.2 |
| 20260508101529 | 43 | 338 | 0.0 | 0.0 | 0.00 | 0.00 | 0.00 | 96 | 1017.0 |
| 20260508101026 | 44 | 338 | 0.0 | 0.0 | 0.00 | 0.00 | 0.00 | 96 | 1017.0 |
| 20260508100524 | 44 | 338 | 0.0 | 0.0 | 0.00 | 0.00 | 0.00 | 96 | 1017.1 |
| 20260508100021 | 44 | 338 | 0.0 | 0.0 | 0.00 | 0.00 | 0.00 | 96 | 1016.8 |
| 20260508095518 | 44 | 338 | 0.0 | 0.0 | 0.00 | 0.00 | 0.00 | 96 | 1016.8 |
| 20260508095015 | 44 | 339 | 0.0 | 0.0 | 0.00 | 0.00 | 0.00 | 96 | 1016.8 |
| 20260508094512 | 44 | 339 | 0.0 | 0.0 | 0.00 | 0.00 | 0.00 | 96 | 1016.7 |
| 20260508094009 | 45 | 339 | 0.0 | 0.0 | 0.00 | 0.00 | 0.00 | 95 | 1016.8 |
| 20260508093506 | 45 | 339 | 0.0 | 0.0 | 0.00 | 0.00 | 0.00 | 96 | 1016.6 |
| 20260508093004 | 45 | 339 | 0.0 | 0.0 | 0.00 | 0.00 | 0.00 | 95 | 1016.9 |
| 20260508092500 | 45 | 339 | 1.0 | 1.0 | 0.00 | 0.00 | 0.00 | 95 | 1016.8 |
| 20260508092000 | 46 | 339 | 0.0 | 0.0 | 0.00 | 0.00 | 0.00 | 95 | 1016.6 |
| 20260508091456 | 46 | 339 | 0.0 | 0.0 | 0.00 | 0.00 | 0.00 | 95 | 1016.6 |
| 20260508090953 | 46 | 339 | 0.0 | 0.0 | 0.00 | 0.00 | 0.00 | 95 | 1016.5 |
| 20260508090452 | 46 | 339 | 0.0 | 0.0 | 0.00 | 0.00 | 0.00 | 94 | 1016.5 |
| 20260508085947 | 46 | 339 | 0.0 | 0.0 | 0.00 | 0.00 | 0.00 | 94 | 1016.6 |
| 20260508085444 | 46 | 339 | 0.0 | 0.0 | 0.00 | 0.00 | 0.00 | 94 | 1016.5 |
| 20260508084941 | 46 | 340 | 0.0 | 0.0 | 0.00 | 0.00 | 0.00 | 94 | 1016.7 |
| 20260508084437 | 47 | 340 | 0.0 | 0.0 | 0.00 | 0.00 | 0.00 | 94 | 1016.7 |
| 20260508083936 | 47 | 340 | 0.0 | 0.0 | 0.00 | 0.00 | 0.00 | 93 | 1016.6 |
| 20260508083432 | 47 | 340 | 1.0 | 1.0 | 0.00 | 0.00 | 0.00 | 93 | 1016.5 |
| 20260508082932 | 47 | 340 | 1.0 | 1.0 | 0.00 | 0.00 | 0.00 | 92 | 1016.5 |
| 20260508082430 | 48 | 340 | 1.0 | 1.0 | 0.00 | 0.00 | 0.00 | 91 | 1016.4 |
| 20260508081928 | 48 | 340 | 0.0 | 0.0 | 0.00 | 0.00 | 0.00 | 90 | 1016.4 |
| 20260508081424 | 48 | 340 | 0.0 | 0.0 | 0.00 | 0.00 | 0.00 | 89 | 1016.4 |
| 20260508080920 | 48 | 340 | 0.0 | 0.0 | 0.00 | 0.00 | 0.00 | 89 | 1016.3 |
| 20260508080419 | 48 | 340 | 0.0 | 0.0 | 0.00 | 0.00 | 0.00 | 88 | 1016.3 |
| 20260508075915 | 48 | 340 | 0.0 | 0.0 | 0.00 | 0.00 | 0.00 | 88 | 1016.3 |
| 20260508075412 | 49 | 340 | 0.0 | 0.0 | 0.00 | 0.00 | 0.00 | 88 | 1016.3 |
| 20260508074910 | 49 | 340 | 1.0 | 1.0 | 0.00 | 0.00 | 0.00 | 88 | 1016.2 |
| 20260508074407 | 49 | 341 | 1.0 | 1.0 | 0.00 | 0.00 | 0.00 | 88 | 1016.4 |
| 20260508073904 | 49 | 340 | 1.0 | 1.0 | 0.00 | 0.00 | 0.00 | 87 | 1016.3 |
| 20260508073402 | 49 | 336 | 2.0 | 2.0 | 0.00 | 0.00 | 0.00 | 88 | 1016.2 |
| 20260508072858 | 49 | 333 | 2.0 | 2.0 | 0.00 | 0.00 | 0.00 | 88 | 1016.5 |
| 20260508072354 | 49 | 320 | 2.0 | 2.0 | 0.00 | 0.00 | 0.00 | 88 | 1016.0 |
| 20260508071852 | 49 | 319 | 2.0 | 2.0 | 0.00 | 0.00 | 0.00 | 88 | 1016.2 |
| 20260508071350 | 49 | 353 | 0.0 | 0.0 | 0.00 | 0.00 | 0.00 | 89 | 1016.2 |
| 20260508070848 | 49 | 328 | 2.0 | 2.0 | 0.00 | 0.00 | 0.00 | 89 | 1016.3 |
| 20260508070346 | 49 | 317 | 2.0 | 2.0 | 0.00 | 0.00 | 0.00 | 90 | 1016.2 |
| 20260508065843 | 49 | 316 | 1.0 | 1.0 | 0.00 | 0.00 | 0.00 | 91 | 1016.1 |
| 20260508065341 | 49 | 305 | 2.0 | 2.0 | 0.00 | 0.00 | 0.00 | 92 | 1016.0 |
| 20260508064839 | 49 | 320 | 1.0 | 1.0 | 0.00 | 0.00 | 0.00 | 92 | 1015.8 |
| 20260508064336 | 49 | 323 | 1.0 | 1.0 | 0.00 | 0.00 | 0.00 | 91 | 1015.8 |
| 20260508063834 | 49 | 324 | 1.0 | 1.0 | 0.00 | 0.00 | 0.00 | 91 | 1015.6 |
| 20260508063331 | 49 | 323 | 1.0 | 1.0 | 0.00 | 0.00 | 0.00 | 92 | 1015.8 |
| 20260508062828 | 48 | 318 | 2.0 | 2.0 | 0.00 | 0.00 | 0.00 | 94 | 1016.2 |
| 20260508062326 | 48 | 322 | 2.0 | 2.0 | 0.00 | 0.00 | 0.00 | 94 | 1015.8 |
| 20260508061822 | 48 | 323 | 0.0 | 0.0 | 0.00 | 0.00 | 0.00 | 94 | 1016.0 |
| 20260508061320 | 48 | 214 | 0.0 | 0.0 | 0.00 | 0.00 | 0.00 | 94 | 1015.8 |
| 20260508060816 | 48 | 216 | 1.0 | 1.0 | 0.00 | 0.00 | 0.00 | 94 | 1015.8 |
| 20260508060315 | 48 | 171 | 0.0 | 0.0 | 0.00 | 0.00 | 0.00 | 94 | 1015.7 |
| 20260508055814 | 48 | 173 | 2.0 | 2.0 | 0.00 | 0.00 | 0.00 | 94 | 1016.0 |
| 20260508055313 | 48 | 147 | 0.0 | 1.0 | 0.00 | 0.00 | 0.00 | 93 | 1015.8 |
| 20260508054809 | 48 | 147 | 1.0 | 1.0 | 0.00 | 0.00 | 0.00 | 94 | 1015.8 |
| 20260508054306 | 48 | 146 | 1.0 | 1.0 | 0.00 | 0.00 | 0.00 | 94 | 1016.0 |
| 20260508053803 | 48 | 146 | 1.0 | 1.0 | 0.00 | 0.00 | 0.00 | 94 | 1016.2 |
| 20260508053300 | 48 | 146 | 1.0 | 1.0 | 0.00 | 0.00 | 0.00 | 94 | 1016.1 |
| 20260508052758 | 48 | 144 | 1.0 | 1.0 | 0.00 | 0.00 | 0.00 | 94 | 1016.2 |
| 20260508052255 | 48 | 144 | 1.0 | 1.0 | 0.00 | 0.00 | 0.00 | 94 | 1016.0 |
| 20260508051751 | 48 | 144 | 1.0 | 1.0 | 0.00 | 0.00 | 0.00 | 94 | 1016.0 |
| 20260508051246 | 48 | 141 | 1.0 | 1.0 | 0.00 | 0.00 | 0.00 | 93 | 1016.0 |
| 20260508050743 | 48 | 141 | 1.0 | 1.0 | 0.00 | 0.00 | 0.00 | 93 | 1015.8 |
| 20260508050240 | 48 | 141 | 0.0 | 0.0 | 0.00 | 0.00 | 0.00 | 93 | 1015.8 |
| 20260508045735 | 49 | 141 | 0.0 | 0.0 | 0.00 | 0.00 | 0.00 | 93 | 1015.7 |
| 20260508045234 | 49 | 141 | 1.0 | 1.0 | 0.00 | 0.00 | 0.00 | 93 | 1015.8 |
| 20260508044731 | 49 | 141 | 0.0 | 0.0 | 0.00 | 0.00 | 0.00 | 93 | 1015.8 |
| 20260508044228 | 49 | 150 | 1.0 | 1.0 | 0.00 | 0.00 | 0.00 | 92 | 1015.8 |
| 20260508043723 | 49 | 106 | 0.0 | 0.0 | 0.00 | 0.00 | 0.00 | 91 | 1015.7 |
| 20260508043221 | 49 | 109 | 2.0 | 2.0 | 0.00 | 0.00 | 0.00 | 90 | 1015.7 |
| 20260508042718 | 49 | 357 | 1.0 | 1.0 | 0.00 | 0.00 | 0.00 | 89 | 1015.6 |
| 20260508042215 | 50 | 357 | 1.0 | 1.0 | 0.00 | 0.00 | 0.00 | 89 | 1015.6 |
| 20260508041711 | 50 | 356 | 2.0 | 2.0 | 0.00 | 0.00 | 0.00 | 87 | 1015.5 |
| 20260508041209 | 50 | 133 | 1.0 | 1.0 | 0.00 | 0.00 | 0.00 | 88 | 1015.5 |
| 20260508040705 | 50 | 131 | 0.0 | 0.0 | 0.00 | 0.00 | 0.00 | 88 | 1015.6 |
| 20260508040202 | 50 | 115 | 2.0 | 2.0 | 0.00 | 0.44 | 0.44 | 88 | 1015.5 |
| 20260508035659 | 50 | 146 | 0.0 | 0.0 | 0.00 | 0.44 | 0.44 | 88 | 1015.6 |
| 20260508035157 | 51 | 145 | 0.0 | 1.0 | 0.00 | 0.44 | 0.44 | 87 | 1015.3 |
| 20260508034653 | 51 | 146 | 1.0 | 1.0 | 0.00 | 0.44 | 0.44 | 85 | 1015.6 |
| 20260508034150 | 51 | 146 | 0.0 | 0.0 | 0.00 | 0.44 | 0.44 | 85 | 1015.6 |
| 20260508033648 | 50 | 146 | 1.0 | 1.0 | 0.00 | 0.44 | 0.44 | 86 | 1015.5 |
| 20260508033146 | 50 | 145 | 0.0 | 0.0 | 0.00 | 0.44 | 0.44 | 88 | 1015.8 |
| 20260508032642 | 50 | 145 | 0.0 | 0.0 | 0.00 | 0.44 | 0.44 | 90 | 1016.0 |
| 20260508032140 | 49 | 145 | 0.0 | 0.0 | 0.00 | 0.44 | 0.44 | 91 | 1015.6 |
| 20260508031637 | 49 | 145 | 0.0 | 1.0 | 0.00 | 0.44 | 0.44 | 93 | 1016.1 |
| 20260508031133 | 49 | 146 | 1.0 | 1.0 | 0.00 | 0.44 | 0.44 | 93 | 1015.4 |
| 20260508030629 | 49 | 146 | 0.0 | 0.0 | 0.00 | 0.44 | 0.44 | 92 | 1015.6 |
| 20260508030127 | 49 | 146 | 1.0 | 1.0 | 0.00 | 0.44 | 0.44 | 93 | 1015.4 |
| 20260508025623 | 49 | 140 | 0.0 | 0.0 | 0.00 | 0.44 | 0.44 | 93 | 1015.5 |
| 20260508025121 | 49 | 141 | 1.0 | 1.0 | 0.00 | 0.44 | 0.44 | 92 | 1015.6 |
| 20260508024616 | 49 | 138 | 1.0 | 1.0 | 0.00 | 0.44 | 0.44 | 92 | 1015.6 |
| 20260508024114 | 49 | 139 | 0.0 | 0.0 | 0.00 | 0.44 | 0.44 | 92 | 1015.4 |
| 20260508023610 | 49 | 139 | 0.0 | 0.0 | 0.00 | 0.44 | 0.44 | 93 | 1015.1 |
| 20260508023108 | 49 | 139 | 1.0 | 1.0 | 0.00 | 0.44 | 0.44 | 92 | 1015.2 |
| 20260508022603 | 49 | 138 | 1.0 | 1.0 | 0.00 | 0.44 | 0.44 | 92 | 1015.0 |
| 20260508022101 | 49 | 152 | 0.0 | 0.0 | 0.00 | 0.44 | 0.44 | 92 | 1015.1 |
| 20260508021556 | 49 | 152 | 2.0 | 2.0 | 0.00 | 0.44 | 0.44 | 92 | 1014.9 |
| 20260508021052 | 49 | 153 | 0.0 | 0.0 | 0.00 | 0.44 | 0.44 | 91 | 1015.0 |
| 20260508020550 | 49 | 150 | 3.0 | 3.0 | 0.00 | 0.44 | 0.44 | 91 | 1014.9 |
| 20260508020048 | 49 | 136 | 0.0 | 0.0 | 0.00 | 0.44 | 0.44 | 90 | 1014.7 |
| 20260508015545 | 49 | 137 | 2.0 | 2.0 | 0.00 | 0.44 | 0.44 | 89 | 1014.9 |
| 20260508015042 | 49 | 135 | 0.0 | 0.0 | 0.00 | 0.44 | 0.44 | 88 | 1014.9 |
| 20260508014538 | 50 | 135 | 1.0 | 1.0 | 0.00 | 0.44 | 0.44 | 88 | 1014.7 |
| 20260508014034 | 50 | 137 | 2.0 | 2.0 | 0.00 | 0.44 | 0.44 | 87 | 1014.6 |
| 20260508013530 | 50 | 131 | 0.0 | 0.0 | 0.00 | 0.44 | 0.44 | 87 | 1014.5 |
| 20260508013028 | 50 | 131 | 1.0 | 1.0 | 0.00 | 0.44 | 0.44 | 86 | 1014.5 |
| 20260508012525 | 50 | 131 | 0.0 | 0.0 | 0.00 | 0.44 | 0.44 | 84 | 1014.4 |
| 20260508012022 | 51 | 132 | 2.0 | 2.0 | 0.00 | 0.44 | 0.44 | 84 | 1014.5 |
| 20260508011521 | 51 | 126 | 1.0 | 1.0 | 0.00 | 0.44 | 0.44 | 84 | 1014.4 |
| 20260508011017 | 51 | 126 | 1.0 | 1.0 | 0.00 | 0.44 | 0.44 | 84 | 1014.4 |
| 20260508010514 | 52 | 126 | 1.0 | 1.0 | 0.00 | 0.44 | 0.44 | 83 | 1014.5 |
| 20260508010012 | 52 | 126 | 1.0 | 1.0 | 0.00 | 0.44 | 0.44 | 80 | 1014.4 |
| 20260508005508 | 52 | 126 | 1.0 | 1.0 | 0.00 | 0.44 | 0.44 | 78 | 1014.1 |
| 20260508005005 | 53 | 126 | 0.0 | 0.0 | 0.00 | 0.44 | 0.44 | 79 | 1014.2 |
| 20260508004501 | 54 | 353 | 1.0 | 1.0 | 0.00 | 0.44 | 0.44 | 73 | 1014.0 |
| 20260508003958 | 53 | 65 | 2.0 | 2.0 | 0.00 | 0.44 | 0.44 | 73 | 1013.9 |
| 20260508003454 | 53 | 32 | 0.0 | 0.0 | 0.00 | 0.44 | 0.44 | 77 | 1013.8 |
| 20260508002952 | 54 | 96 | 2.0 | 2.0 | 0.00 | 0.44 | 0.44 | 75 | 1013.9 |
| 20260508002448 | 54 | 72 | 1.0 | 1.0 | 0.00 | 0.44 | 0.44 | 76 | 1013.8 |
| 20260508001944 | 54 | 312 | 0.0 | 0.0 | 0.00 | 0.44 | 0.44 | 71 | 1013.9 |
| 20260508001441 | 55 | 123 | 2.0 | 2.0 | 0.00 | 0.44 | 0.44 | 75 | 1013.6 |
| 20260508000937 | 55 | 109 | 3.0 | 4.0 | 0.00 | 0.44 | 0.44 | 71 | 1013.6 |
| 20260508000434 | 55 | 243 | 2.0 | 3.0 | 0.00 | 0.44 | 0.44 | 72 | 1013.6 |
| 20260507235930 | 55 | 97 | 1.0 | 1.0 | 0.00 | 0.44 | 0.44 | 75 | 1013.5 |
| 20260507235427 | 56 | 133 | 1.0 | 1.0 | 0.00 | 0.44 | 0.44 | 69 | 1013.4 |
| 20260507234924 | 56 | 66 | 2.0 | 2.0 | 0.00 | 0.44 | 0.44 | 69 | 1013.5 |
| 20260507234421 | 56 | 343 | 1.0 | 1.0 | 0.00 | 0.44 | 0.44 | 69 | 1013.4 |
| 20260507233917 | 57 | 355 | 3.0 | 3.0 | 0.00 | 0.44 | 0.44 | 68 | 1013.5 |
| 20260507233414 | 58 | 151 | 2.0 | 3.0 | 0.00 | 0.44 | 0.44 | 66 | 1013.7 |
| 20260507232913 | 58 | 40 | 1.0 | 1.0 | 0.00 | 0.44 | 0.44 | 68 | 1013.5 |
| 20260507232409 | 58 | 29 | 2.0 | 2.0 | 0.00 | 0.44 | 0.44 | 68 | 1013.5 |
| 20260507231906 | 58 | 16 | 1.0 | 2.0 | 0.00 | 0.44 | 0.44 | 68 | 1013.5 |
| 20260507231403 | 58 | 298 | 4.0 | 4.0 | 0.00 | 0.44 | 0.44 | 67 | 1013.3 |
| 20260507230859 | 59 | 46 | 2.0 | 4.0 | 0.00 | 0.44 | 0.44 | 66 | 1013.5 |
| 20260507230357 | 58 | 342 | 4.0 | 4.0 | 0.00 | 0.44 | 0.44 | 72 | 1013.4 |
| 20260507225856 | 60 | 23 | 2.0 | 2.0 | 0.00 | 0.44 | 0.44 | 66 | 1013.3 |